Flight Track Log - Related Links

Times and Time Zones

All times are in EDT time to prevent confusion due to time zone crossing. See the VH-CGT flight status page for this flight to view local times or setup timezone preferences in your user account.

Time Position Orientation Groundspeed Altitude Reporting Facility
EDT Latitude Longitude Course Direction KTS MPH feet Rate Location/Type
09:46PM -33.9010 150.9691 332° Northwest 80 92 1,300  Level Aus ATC (RADAR)
09:46PM -33.8959 150.9659 332° Northwest 76 87 1,500 824 Climbing Aus ATC (RADAR)
09:47PM -33.8835 150.9590 336° Northwest 78 90 2,000 900 Climbing Aus ATC (RADAR)
09:48PM -33.8676 150.9502 335° Northwest 79 91 2,700 835 Climbing Aus ATC (RADAR)
09:48PM -33.8541 150.9427 335° Northwest 89 102 3,100 270 Climbing Aus ATC (RADAR)
09:49PM -33.8392 150.9148 303° West 108 124 3,100 -68 Level Aus ATC (RADAR)
09:50PM -33.8329 150.9008 298° West 113 130 3,000 347 Descending Aus ATC (RADAR)
09:52PM -33.7946 150.8366 306° West 111 128 4,100 382 Climbing Aus ATC (RADAR)
09:52PM -33.7826 150.8355 355° North 120 138 4,000 -138 Descending Aus ATC (RADAR)
09:53PM -33.7416 150.8262 349° North 125 144 3,900  Descending Aus ATC (RADAR)
09:54PM -33.7103 150.8192 349° North 119 137 4,000  Climbing Aus ATC (RADAR)
09:55PM -33.7018 150.8173 350° North 121 139 3,900  Descending Aus ATC (RADAR)
09:56PM -33.6369 150.8023 349° North 123 142 4,000  Climbing Aus ATC (RADAR)
09:57PM -33.6255 150.7998 350° North 123 142 3,900 -109 Descending Aus ATC (RADAR)
09:57PM -33.6052 150.7962 352° North 124 143 3,900  Level Aus ATC (RADAR)
09:58PM -33.5701 150.7929 356° North 124 143 3,900 61 Level Aus ATC (RADAR)
09:59PM -33.5482 150.7901 354° North 122 140 4,000 128 Climbing Aus ATC (RADAR)
10:00PM -33.5171 150.7854 353° North 121 139 4,100 -44 Climbing Aus ATC (RADAR)
10:01PM -33.4701 150.7793 354° North 125 144 3,900 -126 Descending Aus ATC (RADAR)
10:02PM -33.4616 150.7780 353° North 122 140 3,900  Level Aus ATC (RADAR)
10:02PM -33.4421 150.7753 353° North 123 142 3,900 -63 Level Aus ATC (RADAR)
10:03PM -33.4081 150.7701 353° North 122 140 3,800 63 Descending Aus ATC (RADAR)
10:04PM -33.3894 150.7665 351° North 114 131 4,000 63 Climbing Aus ATC (RADAR)
10:05PM -33.3574 150.7595 350° North 115 132 3,900  Descending Aus ATC (RADAR)
10:06PM -33.3179 150.7490 347° North 113 130 4,000 80 Climbing Aus ATC (RADAR)
10:09PM -33.2355 150.6906 329° Northwest 4,000  Level Aus ATC (Calculated)
10:11PM -33.1989 150.6648 329° Northwest  Level FlightAware Approximate
10:12PM -33.1688 150.6435 329° Northwest  Level FlightAware Approximate
10:13PM -33.1387 150.6223 329° Northwest  Level FlightAware Approximate
10:14PM -33.1086 150.6011 329° Northwest  Level FlightAware Approximate
10:15PM -33.0785 150.5798 329° Northwest  Level FlightAware Approximate
10:16PM -33.0484 150.5587 329° Northwest  Level FlightAware Approximate
10:17PM -33.0182 150.5375 329° Northwest  Level FlightAware Approximate
10:18PM -32.9881 150.5163 329° Northwest  Level FlightAware Approximate
10:19PM -32.9582 150.4948 329° Northwest  Level FlightAware Approximate
10:20PM -32.9881 150.5163 149° Southeast  Level FlightAware Approximate
10:21PM -32.9729 150.5168 North  Level FlightAware Approximate
10:22PM -32.9380 150.5181 North  Level FlightAware Approximate
10:23PM -32.9030 150.5195 North  Level FlightAware Approximate
10:24PM -32.8681 150.5208 North  Level FlightAware Approximate
10:25PM -32.8331 150.5222 North  Level FlightAware Approximate
10:26PM -32.7982 150.5235 North  Level FlightAware Approximate
10:27PM -32.7633 150.5249 North  Level FlightAware Approximate
10:28PM -32.7283 150.5262 North  Level FlightAware Approximate
10:29PM -32.6934 150.5276 North  Level FlightAware Approximate
10:30PM -32.6584 150.5289 North  Level FlightAware Approximate
10:31PM -32.6235 150.5303 North  Level FlightAware Approximate
10:32PM -32.5886 150.5316 North  Level FlightAware Approximate
10:33PM -32.5536 150.5330 North  Level FlightAware Approximate
10:34PM -32.5187 150.5343 North  Level FlightAware Approximate
10:35PM -32.4837 150.5357 North  Level FlightAware Approximate
10:36PM -32.4488 150.5370 North  Level FlightAware Approximate
10:37PM -32.4139 150.5383 North  Level FlightAware Approximate
10:38PM -32.3789 150.5397 North  Level FlightAware Approximate
10:39PM -32.3440 150.5410 North  Level FlightAware Approximate
10:40PM -32.3090 150.5424 North  Level FlightAware Approximate
10:41PM -32.2741 150.5437 North  Level FlightAware Approximate
10:42PM -32.2392 150.5450 North  Level FlightAware Approximate
10:43PM -32.2042 150.5464 North  Level FlightAware Approximate
10:44PM -32.1693 150.5477 North  Level FlightAware Approximate
10:45PM -32.1512 150.5320 259° West  Level FlightAware Approximate
10:46PM -32.1576 150.4914 259° West  Level FlightAware Approximate
10:47PM -32.1640 150.4508 259° West  Level FlightAware Approximate
10:48PM -32.1704 150.4102 259° West  Level FlightAware Approximate
10:49PM -32.1768 150.3696 260° West  Level FlightAware Approximate
10:50PM -32.1831 150.3289 260° West  Level FlightAware Approximate
10:51PM -32.1895 150.2883 260° West  Level FlightAware Approximate
10:52PM -32.1958 150.2477 260° West  Level FlightAware Approximate
10:53PM -32.2021 150.2071 260° West  Level FlightAware Approximate
10:54PM -32.2084 150.1664 260° West  Level FlightAware Approximate
10:55PM -32.2147 150.1258 260° West  Level FlightAware Approximate
10:56PM -32.2210 150.0851 260° West  Level FlightAware Approximate
10:57PM -32.2272 150.0445 260° West  Level FlightAware Approximate
10:58PM -32.2335 150.0038 260° West  Level FlightAware Approximate
10:59PM -32.2397 149.9632 260° West  Level FlightAware Approximate
11:00PM -32.2459 149.9225 260° West  Level FlightAware Approximate
11:01PM -32.2521 149.8818 260° West  Level FlightAware Approximate
11:02PM -32.2583 149.8412 260° West  Level FlightAware Approximate
11:03PM -32.2645 149.8005 260° West  Level FlightAware Approximate
11:04PM -32.2707 149.7598 260° West  Level FlightAware Approximate
11:05PM -32.2768 149.7191 260° West  Level FlightAware Approximate
11:06PM -32.2830 149.6784 260° West  Level FlightAware Approximate
11:07PM -32.2891 149.6377 260° West  Level FlightAware Approximate
11:08PM -32.2952 149.5970 260° West  Level FlightAware Approximate
11:09PM -32.2960 149.5603 345° North  Level FlightAware Approximate
11:10PM -32.2622 149.5499 345° North  Level FlightAware Approximate
11:11PM -32.2283 149.5395 345° North  Level FlightAware Approximate
11:12PM -32.1945 149.5291 345° North  Level FlightAware Approximate
11:13PM -32.1607 149.5187 345° North  Level FlightAware Approximate
11:14PM -32.1268 149.5083 345° North  Level FlightAware Approximate
11:15PM -32.0930 149.4980 345° North  Level FlightAware Approximate
11:16PM -32.0592 149.4876 345° North  Level FlightAware Approximate
11:17PM -32.0253 149.4773 345° North  Level FlightAware Approximate
11:18PM -31.9915 149.4669 345° North  Level FlightAware Approximate
11:19PM -31.9576 149.4566 345° North  Level FlightAware Approximate
11:20PM -31.9238 149.4463 345° North  Level FlightAware Approximate
11:21PM -31.8902 149.4360 345° North  Level FlightAware Approximate
11:22PM -31.8566 149.4258 345° North  Level FlightAware Approximate
11:23PM -31.8230 149.4156 345° North  Level FlightAware Approximate
11:24PM -31.7894 149.4053 346° North  Level FlightAware Approximate
11:25PM -31.7558 149.3951 346° North  Level FlightAware Approximate
11:26PM -31.7221 149.3849 346° North  Level FlightAware Approximate
11:27PM -31.6885 149.3747 346° North  Level FlightAware Approximate
11:28PM -31.6549 149.3645 346° North  Level FlightAware Approximate
11:29PM -31.6213 149.3543 346° North  Level FlightAware Approximate
11:30PM -31.5877 149.3441 346° North  Level FlightAware Approximate
11:31PM -31.5540 149.3340 346° North  Level FlightAware Approximate
11:32PM -31.5204 149.3238 346° North  Level FlightAware Approximate
11:33PM -31.4868 149.3136 346° North  Level FlightAware Approximate
11:34PM -31.4532 149.3035 346° North  Level FlightAware Approximate
11:35PM -31.4196 149.2933 346° North  Level FlightAware Approximate
11:36PM -31.3859 149.2832 346° North  Level FlightAware Approximate
11:37PM -31.3523 149.2731 346° North  Level FlightAware Approximate
11:38PM -31.3315 149.2839 86° East  Level FlightAware Approximate
11:39PM -31.3289 149.3244 86° East  Level FlightAware Approximate
11:40PM -31.3263 149.3649 86° East  Level FlightAware Approximate
11:41PM -31.3236 149.4055 86° East  Level FlightAware Approximate
11:42PM -31.3210 149.4460 86° East  Level FlightAware Approximate
11:43PM -31.3183 149.4865 86° East  Level FlightAware Approximate
11:44PM -31.3157 149.5270 86° East  Level FlightAware Approximate
11:45PM -31.3130 149.5676 86° East  Level FlightAware Approximate
11:46PM -31.3103 149.6081 86° East  Level FlightAware Approximate
11:47PM -31.3076 149.6486 86° East  Level FlightAware Approximate
11:48PM -31.3048 149.6891 86° East  Level FlightAware Approximate
11:49PM -31.3021 149.7296 85° East  Level FlightAware Approximate
11:50PM -31.2993 149.7701 85° East  Level FlightAware Approximate
11:51PM -31.2966 149.8106 85° East  Level FlightAware Approximate
11:52PM -31.2938 149.8511 85° East  Level FlightAware Approximate
11:53PM -31.2910 149.8916 85° East  Level FlightAware Approximate
11:54PM -31.2882 149.9321 85° East  Level FlightAware Approximate
11:55PM -31.2854 149.9726 85° East  Level FlightAware Approximate
11:56PM -31.2826 150.0131 85° East  Level FlightAware Approximate
11:57PM -31.2797 150.0536 85° East  Level FlightAware Approximate
11:58PM -31.2769 150.0940 85° East  Level FlightAware Approximate
11:59PM -31.2740 150.1345 85° East  Level FlightAware Approximate
12:00AM -31.2711 150.1750 85° East  Level FlightAware Approximate
12:01AM -31.2682 150.2155 85° East  Level FlightAware Approximate
12:02AM -31.2653 150.2560 85° East  Level FlightAware Approximate
12:03AM -31.2624 150.2964 85° East  Level FlightAware Approximate
12:04AM -31.2595 150.3369 85° East  Level FlightAware Approximate
12:05AM -31.2565 150.3774 85° East  Level FlightAware Approximate
12:06AM -31.2536 150.4178 85° East  Level FlightAware Approximate
12:07AM -31.2506 150.4583 85° East  Level FlightAware Approximate
12:08AM -31.2375 150.4954 63° Northeast  Level FlightAware Approximate
12:09AM -31.2218 150.5315 63° Northeast  Level FlightAware Approximate
12:10AM -31.2060 150.5677 63° Northeast  Level FlightAware Approximate
12:11AM -31.1902 150.6039 63° Northeast  Level FlightAware Approximate
12:12AM -31.1744 150.6400 63° Northeast  Level FlightAware Approximate
12:13AM -31.1586 150.6761 63° Northeast  Level FlightAware Approximate
12:14AM -31.1428 150.7122 63° Northeast  Level FlightAware Approximate
12:15AM -31.1270 150.7483 63° Northeast  Level FlightAware Approximate
12:16AM -31.1111 150.7844 63° Northeast  Level FlightAware Approximate
12:17AM -31.0953 150.8205 63° Northeast  Level FlightAware Approximate

Login

Don't have an account? Register now (free) for customized features, flight alerts, and more!